createdAt,value
2019-01-29T00:00:34.645Z,0
2019-01-29T00:01:34.634Z,0
2019-01-29T00:02:34.396Z,0
2019-01-29T00:03:34.657Z,0
2019-01-29T00:04:34.677Z,0
2019-01-29T00:05:49.360Z,0
2019-01-29T00:06:34.697Z,0
2019-01-29T00:08:34.735Z,0
2019-01-29T00:09:34.493Z,0
2019-01-29T00:10:34.751Z,0
2019-01-29T00:12:49.446Z,0
2019-01-29T00:13:34.797Z,0
2019-01-29T00:14:34.811Z,0
2019-01-29T00:15:34.827Z,0
2019-01-29T00:16:34.835Z,0
2019-01-29T00:17:34.851Z,0
2019-01-29T00:18:34.860Z,0
2019-01-29T00:19:34.875Z,0
2019-01-29T00:20:34.902Z,0
2019-01-29T00:21:34.902Z,0
2019-01-29T00:22:40.633Z,0
2019-01-29T00:23:49.593Z,0
2019-01-29T00:24:49.607Z,0
2019-01-29T00:25:34.954Z,0
2019-01-29T00:27:34.995Z,0
2019-01-29T00:28:49.664Z,0
2019-01-29T00:29:35.012Z,0
2019-01-29T00:30:35.036Z,0
2019-01-29T00:31:35.044Z,0
2019-01-29T00:32:35.055Z,0
2019-01-29T00:33:35.070Z,0
2019-01-29T00:34:35.082Z,0
2019-01-29T00:35:35.107Z,0
2019-01-29T00:36:35.109Z,0
2019-01-29T00:37:35.124Z,0
2019-01-29T00:38:35.136Z,0
2019-01-29T00:39:35.149Z,0
2019-01-29T00:40:49.826Z,0
2019-01-29T00:41:49.838Z,0
2019-01-29T00:42:35.192Z,0
2019-01-29T00:43:35.211Z,0
2019-01-29T00:44:49.889Z,0
2019-01-29T00:45:35.230Z,0
2019-01-29T00:46:35.253Z,0
2019-01-29T00:47:35.263Z,0
2019-01-29T00:48:35.274Z,0
2019-01-29T00:49:35.288Z,0
2019-01-29T00:50:35.303Z,0
2019-01-29T00:51:35.312Z,0
2019-01-29T00:52:41.789Z,0
2019-01-29T00:53:35.342Z,0
2019-01-29T00:54:35.112Z,0
2019-01-29T00:55:35.374Z,0
2019-01-29T00:56:35.385Z,0
2019-01-29T00:57:35.402Z,0
2019-01-29T00:58:35.409Z,0
2019-01-29T01:00:04.756Z,0
2019-01-29T01:00:35.441Z,0
2019-01-29T01:01:35.452Z,0
2019-01-29T01:02:35.466Z,0
2019-01-29T01:03:35.485Z,0
2019-01-29T01:04:35.497Z,0
2019-01-29T01:05:35.507Z,0
2019-01-29T01:06:35.529Z,0
2019-01-29T01:07:35.658Z,0
2019-01-29T01:08:35.552Z,0
2019-01-29T01:09:56.962Z,0
2019-01-29T01:10:35.584Z,0
2019-01-29T01:11:35.592Z,0
2019-01-29T01:12:50.266Z,0
2019-01-29T01:15:35.649Z,0
2019-01-29T01:16:35.664Z,0
2019-01-29T01:17:35.671Z,0
2019-01-29T01:18:35.696Z,0
2019-01-29T01:19:35.695Z,0
2019-01-29T01:20:35.712Z,0
2019-01-29T01:21:35.723Z,0
2019-01-29T01:22:35.744Z,0
2019-01-29T01:23:35.753Z,0
2019-01-29T01:24:35.771Z,0
2019-01-29T01:26:35.792Z,0
2019-01-29T01:27:35.804Z,0
2019-01-29T01:28:35.823Z,0
2019-01-29T01:29:35.838Z,0
2019-01-29T01:30:35.850Z,0
2019-01-29T01:31:50.526Z,0
2019-01-29T01:32:35.876Z,0
2019-01-29T01:33:35.888Z,0
2019-01-29T01:34:35.912Z,0
2019-01-29T01:35:35.914Z,0
2019-01-29T01:36:35.932Z,0
2019-01-29T01:37:35.942Z,0
2019-01-29T01:38:50.620Z,0
2019-01-29T01:39:35.970Z,0
2019-01-29T01:40:50.648Z,0
2019-01-29T01:41:36.006Z,0
2019-01-29T01:42:36.012Z,0
2019-01-29T01:43:50.686Z,0
2019-01-29T01:44:36.037Z,0
2019-01-29T01:46:36.067Z,0
2019-01-29T01:47:50.741Z,0
2019-01-29T01:48:36.111Z,0
2019-01-29T01:49:36.102Z,0
2019-01-29T01:50:36.122Z,0
2019-01-29T01:51:36.132Z,0
2019-01-29T01:52:36.146Z,0
2019-01-29T01:53:36.161Z,0
2019-01-29T01:54:36.171Z,0
2019-01-29T01:55:50.851Z,0
2019-01-29T01:56:36.197Z,0
2019-01-29T01:57:36.210Z,0
2019-01-29T01:58:36.225Z,0
2019-01-29T01:59:50.902Z,0
2019-01-29T02:00:36.333Z,0
2019-01-29T02:02:36.279Z,0
2019-01-29T02:03:50.959Z,0
2019-01-29T02:04:36.309Z,0
2019-01-29T02:05:36.322Z,0
2019-01-29T02:06:36.335Z,0
2019-01-29T02:07:36.347Z,0
2019-01-29T02:08:36.367Z,0
2019-01-29T02:10:36.388Z,0
2019-01-29T02:11:36.404Z,0
2019-01-29T02:12:36.415Z,0
2019-01-29T02:14:36.439Z,0
2019-01-29T02:15:36.459Z,0
2019-01-29T02:16:36.281Z,0
2019-01-29T02:17:36.482Z,0
2019-01-29T02:18:36.491Z,0
2019-01-29T02:19:51.171Z,0
2019-01-29T02:20:36.522Z,0
2019-01-29T02:21:36.530Z,0
2019-01-29T02:22:36.545Z,0
2019-01-29T02:23:36.560Z,0
2019-01-29T02:24:36.575Z,0
2019-01-29T02:25:36.590Z,0
2019-01-29T02:26:36.598Z,0
2019-01-29T02:27:36.611Z,0
2019-01-29T02:28:36.626Z,0
2019-01-29T02:29:36.640Z,0
2019-01-29T02:30:36.665Z,0
2019-01-29T02:31:36.668Z,0
2019-01-29T02:32:36.692Z,0
2019-01-29T02:33:36.698Z,0
2019-01-29T02:34:51.387Z,0
2019-01-29T02:35:36.727Z,0
2019-01-29T02:36:36.734Z,0
2019-01-29T02:37:36.765Z,0
2019-01-29T02:38:51.179Z,0
2019-01-29T02:39:36.785Z,0
2019-01-29T02:40:36.795Z,0
2019-01-29T02:42:36.814Z,0
2019-01-29T02:43:36.827Z,0
2019-01-29T02:44:37.152Z,0
2019-01-29T02:45:36.862Z,0
2019-01-29T02:46:36.873Z,0
2019-01-29T02:47:36.881Z,0
2019-01-29T02:48:51.553Z,0
2019-01-29T02:49:36.661Z,0
2019-01-29T02:51:36.934Z,0
2019-01-29T02:52:36.950Z,0
2019-01-29T02:53:36.961Z,0
2019-01-29T02:54:36.969Z,0
2019-01-29T02:55:36.993Z,0
2019-01-29T02:56:37.006Z,0
2019-01-29T02:57:37.015Z,0
2019-01-29T02:58:37.038Z,0
2019-01-29T02:59:51.701Z,0
2019-01-29T03:00:51.741Z,0
2019-01-29T03:01:37.073Z,0
2019-01-29T03:02:37.085Z,0
2019-01-29T03:03:51.753Z,0
2019-01-29T03:04:37.103Z,0
2019-01-29T03:06:51.791Z,0
2019-01-29T03:07:37.143Z,0
2019-01-29T03:08:37.160Z,0
2019-01-29T03:09:37.166Z,0
2019-01-29T03:10:37.181Z,0
2019-01-29T03:12:51.873Z,0
2019-01-29T03:13:51.887Z,0
2019-01-29T03:14:37.239Z,0
2019-01-29T03:15:37.374Z,0
2019-01-29T03:16:51.927Z,0
2019-01-29T03:17:51.933Z,0
2019-01-29T03:18:51.964Z,0
2019-01-29T03:19:51.970Z,0
2019-01-29T03:20:37.419Z,0
2019-01-29T03:21:38.845Z,0
2019-01-29T03:22:52.004Z,0
2019-01-29T03:23:52.027Z,0
2019-01-29T03:24:37.366Z,0
2019-01-29T03:25:37.392Z,0
2019-01-29T03:26:37.395Z,0
2019-01-29T03:27:37.399Z,0
2019-01-29T03:28:37.428Z,0
2019-01-29T03:29:37.427Z,0
2019-01-29T03:30:37.471Z,0
2019-01-29T03:31:37.474Z,0
2019-01-29T03:32:37.510Z,0
2019-01-29T03:33:37.510Z,0
2019-01-29T03:34:37.556Z,0
2019-01-29T03:36:37.519Z,0
2019-01-29T03:37:37.534Z,0
2019-01-29T03:38:52.210Z,0
2019-01-29T03:39:37.315Z,0
2019-01-29T03:40:37.571Z,0
2019-01-29T03:41:37.580Z,0
2019-01-29T03:42:37.597Z,0
2019-01-29T03:44:37.633Z,0
2019-01-29T03:45:37.722Z,0
2019-01-29T03:46:37.658Z,0
2019-01-29T03:47:37.666Z,0
2019-01-29T03:48:37.674Z,0
2019-01-29T03:49:37.694Z,0
2019-01-29T03:51:52.375Z,0
2019-01-29T03:52:37.724Z,0
2019-01-29T03:53:45.089Z,0
2019-01-29T03:54:52.416Z,0
2019-01-29T03:55:37.775Z,0
2019-01-29T03:57:37.791Z,0
2019-01-29T03:58:37.815Z,0
2019-01-29T03:59:37.815Z,0
2019-01-29T04:00:37.838Z,0
2019-01-29T04:01:37.871Z,0
2019-01-29T04:02:37.855Z,0
2019-01-29T04:03:37.875Z,0
2019-01-29T04:04:37.873Z,0
2019-01-29T04:05:37.956Z,0
2019-01-29T04:06:37.903Z,0
2019-01-29T04:07:37.920Z,0
2019-01-29T04:08:37.930Z,0
2019-01-29T04:09:52.605Z,0
2019-01-29T04:10:37.967Z,0
2019-01-29T04:11:37.980Z,0
2019-01-29T04:12:37.984Z,0
2019-01-29T04:13:38.007Z,0
2019-01-29T04:14:38.007Z,0
2019-01-29T04:15:52.685Z,0
2019-01-29T04:16:38.039Z,0
2019-01-29T04:17:52.707Z,0
2019-01-29T04:18:38.057Z,0
2019-01-29T04:19:38.071Z,0
2019-01-29T04:20:38.089Z,0
2019-01-29T04:21:38.093Z,0
2019-01-29T04:22:38.176Z,0
2019-01-29T04:23:47.052Z,0
2019-01-29T04:24:38.135Z,0
2019-01-29T04:26:38.164Z,0
2019-01-29T04:27:38.189Z,0
2019-01-29T04:28:38.247Z,0
2019-01-29T04:29:38.212Z,0
2019-01-29T04:30:38.217Z,0
2019-01-29T04:31:38.220Z,0
2019-01-29T04:32:38.698Z,0
2019-01-29T04:33:38.256Z,0
2019-01-29T04:34:38.345Z,0
2019-01-29T04:35:52.941Z,0
2019-01-29T04:36:38.289Z,0
2019-01-29T04:38:38.317Z,0
2019-01-29T04:39:38.321Z,0
2019-01-29T04:40:38.339Z,0
2019-01-29T04:41:53.010Z,0
2019-01-29T04:42:38.389Z,0
2019-01-29T04:43:38.372Z,0
2019-01-29T04:44:38.389Z,0
2019-01-29T04:45:53.067Z,0
2019-01-29T04:46:38.416Z,0
2019-01-29T04:47:38.431Z,0
2019-01-29T04:48:38.184Z,0
2019-01-29T04:49:38.449Z,0
2019-01-29T04:51:38.470Z,0
2019-01-29T04:52:53.158Z,0
2019-01-29T04:53:38.543Z,0
2019-01-29T04:54:38.515Z,0
2019-01-29T04:55:38.560Z,0
2019-01-29T04:56:38.543Z,0
2019-01-29T04:57:53.228Z,0
2019-01-29T04:58:38.689Z,0
2019-01-29T04:59:38.573Z,0
2019-01-29T05:00:38.591Z,0
2019-01-29T05:01:38.602Z,0
2019-01-29T05:02:38.611Z,0
2019-01-29T05:03:38.701Z,0
2019-01-29T05:04:38.636Z,0
2019-01-29T05:05:38.748Z,0
2019-01-29T05:06:38.415Z,0
2019-01-29T05:07:38.715Z,0
2019-01-29T05:09:53.361Z,0
2019-01-29T05:10:38.719Z,0
2019-01-29T05:11:38.737Z,0
2019-01-29T05:12:38.740Z,0
2019-01-29T05:14:38.766Z,0
2019-01-29T05:15:38.794Z,0
2019-01-29T05:16:38.789Z,0
2019-01-29T05:17:38.798Z,0
2019-01-29T05:18:39.417Z,0
2019-01-29T05:19:38.826Z,0
2019-01-29T05:20:38.839Z,0
2019-01-29T05:21:38.861Z,0
2019-01-29T05:22:53.524Z,0
2019-01-29T05:23:38.876Z,0
2019-01-29T05:24:38.901Z,0
2019-01-29T05:25:38.898Z,0
2019-01-29T05:26:38.915Z,0
2019-01-29T05:28:38.942Z,0
2019-01-29T05:29:53.614Z,0
2019-01-29T05:30:38.968Z,0
2019-01-29T05:31:38.970Z,0
2019-01-29T05:32:39.000Z,0
2019-01-29T05:33:38.999Z,0
2019-01-29T05:34:39.019Z,0
2019-01-29T05:35:53.689Z,0
2019-01-29T05:36:38.787Z,0
2019-01-29T05:37:39.051Z,0
2019-01-29T05:38:39.065Z,0
2019-01-29T05:39:39.074Z,0
2019-01-29T05:42:39.109Z,0
2019-01-29T05:43:39.146Z,0
2019-01-29T05:44:53.800Z,0
2019-01-29T05:45:38.918Z,0
2019-01-29T05:46:39.176Z,0
2019-01-29T05:47:39.175Z,0
2019-01-29T05:48:53.853Z,0
2019-01-29T05:49:39.202Z,0
2019-01-29T05:50:39.217Z,0
2019-01-29T05:51:40.651Z,0
2019-01-29T05:52:39.241Z,0
2019-01-29T05:53:39.258Z,0
2019-01-29T05:54:39.288Z,0
2019-01-29T05:56:39.286Z,0
2019-01-29T05:57:53.959Z,0
2019-01-29T05:58:39.314Z,0
2019-01-29T05:59:39.414Z,0
2019-01-29T06:01:39.346Z,0
2019-01-29T06:02:39.357Z,0
2019-01-29T06:03:39.380Z,0
2019-01-29T06:04:39.382Z,0
2019-01-29T06:05:39.406Z,0
2019-01-29T06:06:39.405Z,0
2019-01-29T06:07:39.419Z,0
2019-01-29T06:08:39.445Z,0
2019-01-29T06:09:39.449Z,0
2019-01-29T06:10:39.466Z,0
2019-01-29T06:11:39.467Z,0
2019-01-29T06:12:39.503Z,0
2019-01-29T06:13:54.157Z,0
2019-01-29T06:14:39.514Z,0
2019-01-29T06:15:54.196Z,0
2019-01-29T06:16:54.193Z,4
2019-01-29T06:17:39.546Z,4
2019-01-29T06:18:39.558Z,0
2019-01-29T06:19:39.566Z,4
2019-01-29T06:20:39.584Z,0
2019-01-29T06:21:54.325Z,4
2019-01-29T06:22:39.374Z,4
2019-01-29T06:23:39.632Z,4
2019-01-29T06:24:54.290Z,4
2019-01-29T06:25:54.317Z,8
2019-01-29T06:26:54.326Z,8
2019-01-29T06:27:54.323Z,12
2019-01-29T06:28:54.341Z,12
2019-01-29T06:29:39.695Z,16
2019-01-29T06:30:54.360Z,20
2019-01-29T06:31:39.721Z,24
2019-01-29T06:32:54.391Z,24
2019-01-29T06:33:39.736Z,28
2019-01-29T06:34:39.757Z,36
2019-01-29T06:35:39.762Z,40
2019-01-29T06:36:39.781Z,40
2019-01-29T06:37:39.540Z,48
2019-01-29T06:38:39.801Z,56
2019-01-29T06:39:39.804Z,60
2019-01-29T06:40:39.878Z,68
2019-01-29T06:41:39.830Z,76
2019-01-29T06:42:39.852Z,80
2019-01-29T06:43:39.861Z,92
2019-01-29T06:44:54.537Z,104
2019-01-29T06:45:54.543Z,112
2019-01-29T06:46:39.894Z,120
2019-01-29T06:47:39.910Z,136
2019-01-29T06:48:56.321Z,148
2019-01-29T06:50:54.608Z,176
2019-01-29T06:51:39.957Z,192
2019-01-29T06:52:39.962Z,204
2019-01-29T06:53:39.972Z,224
2019-01-29T06:54:41.376Z,240
2019-01-29T06:55:39.998Z,260
2019-01-29T06:56:40.022Z,280
2019-01-29T06:57:40.022Z,308
2019-01-29T06:58:40.036Z,344
2019-01-29T06:59:40.048Z,384
2019-01-29T07:00:40.058Z,428
2019-01-29T07:01:54.730Z,484
2019-01-29T07:02:40.080Z,524
2019-01-29T07:03:40.092Z,568
2019-01-29T07:04:54.770Z,628
2019-01-29T07:05:40.118Z,660
2019-01-29T07:06:40.131Z,712
2019-01-29T07:08:40.164Z,808
2019-01-29T07:09:40.163Z,860
2019-01-29T07:10:40.176Z,900
2019-01-29T07:11:40.233Z,944
2019-01-29T07:12:40.202Z,972
2019-01-29T07:13:54.875Z,844
2019-01-29T07:14:40.236Z,744
2019-01-29T07:15:40.258Z,612
2019-01-29T07:16:40.256Z,628
2019-01-29T07:17:40.271Z,560
2019-01-29T07:18:40.273Z,516
2019-01-29T07:19:54.947Z,528
2019-01-29T07:20:40.301Z,512
2019-01-29T07:21:54.724Z,464
2019-01-29T07:22:40.324Z,432
2019-01-29T07:23:40.337Z,440
2019-01-29T07:24:47.591Z,408
2019-01-29T07:25:40.320Z,412
2019-01-29T07:26:40.368Z,412
2019-01-29T07:27:55.145Z,404
2019-01-29T07:28:40.404Z,400
2019-01-29T07:29:40.404Z,396
2019-01-29T07:30:55.079Z,332
2019-01-29T07:32:40.440Z,288
2019-01-29T07:33:41.930Z,276
2019-01-29T07:34:40.469Z,300
2019-01-29T07:35:40.484Z,376
2019-01-29T07:36:40.494Z,528
2019-01-29T07:37:40.506Z,540
2019-01-29T07:38:40.574Z,560
2019-01-29T07:39:40.537Z,604
2019-01-29T07:40:40.539Z,680
2019-01-29T07:41:55.218Z,824
2019-01-29T07:42:40.575Z,792
2019-01-29T07:43:40.579Z,1020
2019-01-29T07:44:40.688Z,1212
2019-01-29T07:45:40.609Z,1264
2019-01-29T07:46:40.616Z,1348
2019-01-29T07:47:40.376Z,1216
2019-01-29T07:48:55.059Z,1076
2019-01-29T07:50:40.662Z,1476
2019-01-29T07:51:55.337Z,1724
2019-01-29T07:52:55.355Z,1868
2019-01-29T07:54:40.783Z,2000
2019-01-29T07:55:55.390Z,2564
2019-01-29T07:56:40.736Z,2996
2019-01-29T07:57:40.746Z,3184
2019-01-29T07:58:40.756Z,3324
2019-01-29T07:59:55.436Z,2760
2019-01-29T08:00:55.446Z,2724
2019-01-29T08:01:55.463Z,3080
2019-01-29T08:02:40.812Z,3560
2019-01-29T08:03:43.188Z,3924
2019-01-29T08:04:40.916Z,2788
2019-01-29T08:05:55.514Z,2604
2019-01-29T08:06:55.276Z,2584
2019-01-29T08:07:55.539Z,2724
2019-01-29T08:08:40.894Z,2816
2019-01-29T08:10:40.920Z,3364
2019-01-29T08:11:40.923Z,3380
2019-01-29T08:12:40.938Z,3252
2019-01-29T08:13:40.955Z,3672
2019-01-29T08:14:40.963Z,4052
2019-01-29T08:15:40.971Z,3444
2019-01-29T08:17:40.996Z,2564
2019-01-29T08:18:41.062Z,2932
2019-01-29T08:19:41.030Z,3528
2019-01-29T08:20:41.041Z,4008
2019-01-29T08:21:55.769Z,3276
2019-01-29T08:22:41.060Z,2724
2019-01-29T08:23:55.739Z,3068
2019-01-29T08:24:41.096Z,2648
2019-01-29T08:25:49.954Z,1832
2019-01-29T08:27:41.125Z,1240
2019-01-29T08:28:41.137Z,1176
2019-01-29T08:29:41.154Z,820
2019-01-29T08:30:41.175Z,908
2019-01-29T08:31:41.172Z,1196
2019-01-29T08:32:41.189Z,1516
2019-01-29T08:33:41.203Z,1408
2019-01-29T08:34:41.213Z,1356
2019-01-29T08:35:41.574Z,1220
2019-01-29T08:36:41.241Z,1356
2019-01-29T08:37:41.316Z,1444
2019-01-29T08:38:41.263Z,1672
2019-01-29T08:39:55.938Z,1612
2019-01-29T08:41:41.304Z,1724
2019-01-29T08:42:55.990Z,1700
2019-01-29T08:43:41.334Z,2156
2019-01-29T08:45:41.354Z,1784
2019-01-29T08:46:41.372Z,1492
2019-01-29T08:47:41.380Z,1536
2019-01-29T08:48:41.391Z,1576
2019-01-29T08:49:41.406Z,1804
2019-01-29T08:50:41.415Z,1516
2019-01-29T08:51:41.429Z,1304
2019-01-29T08:52:56.113Z,1240
2019-01-29T08:53:41.467Z,1136
2019-01-29T08:54:56.135Z,1024
2019-01-29T08:55:41.484Z,1032
2019-01-29T08:56:41.610Z,1032
2019-01-29T08:57:41.512Z,1496
2019-01-29T08:58:41.523Z,1720
2019-01-29T08:59:41.533Z,1920
2019-01-29T09:00:41.545Z,2196
2019-01-29T09:01:41.561Z,1964
2019-01-29T09:02:41.582Z,1844
2019-01-29T09:03:41.587Z,2452
2019-01-29T09:04:41.597Z,2328
2019-01-29T09:05:56.271Z,2116
2019-01-29T09:06:56.347Z,2384
2019-01-29T09:08:41.651Z,2188
2019-01-29T09:09:41.678Z,2568
2019-01-29T09:10:41.675Z,2284
2019-01-29T09:11:41.694Z,2024
2019-01-29T09:12:41.705Z,2400
2019-01-29T09:13:43.040Z,2572
2019-01-29T09:14:41.727Z,1892
2019-01-29T09:15:41.752Z,1868
2019-01-29T09:16:41.756Z,1580
2019-01-29T09:17:41.826Z,1684
2019-01-29T09:18:41.777Z,1800
2019-01-29T09:19:41.787Z,1668
2019-01-29T09:20:56.466Z,1952
2019-01-29T09:21:41.817Z,1868
2019-01-29T09:22:41.826Z,1560
2019-01-29T09:23:56.503Z,1800
2019-01-29T09:24:41.851Z,2244
2019-01-29T09:25:41.871Z,2244
2019-01-29T09:26:56.540Z,1936
2019-01-29T09:27:41.905Z,1644
2019-01-29T09:28:41.915Z,1792
2019-01-29T09:29:41.921Z,1868
2019-01-29T09:30:43.923Z,1896
2019-01-29T09:31:41.954Z,2492
2019-01-29T09:32:41.958Z,2512
2019-01-29T09:33:41.969Z,2216
2019-01-29T09:35:42.035Z,2236
2019-01-29T09:37:56.790Z,1896
2019-01-29T09:40:42.061Z,2008
2019-01-29T09:41:42.078Z,2056
2019-01-29T09:42:56.754Z,2856
2019-01-29T09:43:42.097Z,2884
2019-01-29T09:44:42.116Z,3304
2019-01-29T09:45:42.134Z,3160
2019-01-29T09:46:42.141Z,3180
2019-01-29T09:47:42.153Z,2828
2019-01-29T09:48:42.168Z,2516
2019-01-29T09:49:42.180Z,2808
2019-01-29T09:50:56.855Z,2640
2019-01-29T09:51:42.201Z,2564
2019-01-29T09:52:42.223Z,2592
2019-01-29T09:53:42.246Z,2480
2019-01-29T09:54:42.351Z,2416
2019-01-29T09:57:42.293Z,1880
2019-01-29T09:58:56.958Z,1528
2019-01-29T09:59:42.072Z,1476
2019-01-29T10:00:42.078Z,1556
2019-01-29T10:01:57.005Z,1528
2019-01-29T10:02:42.352Z,1564
2019-01-29T10:03:42.364Z,1576
2019-01-29T10:04:42.384Z,1748
2019-01-29T10:05:44.173Z,1688
2019-01-29T10:06:42.403Z,1556
2019-01-29T10:07:42.417Z,1644
2019-01-29T10:08:42.434Z,1688
2019-01-29T10:09:57.102Z,1888
2019-01-29T10:10:42.531Z,1772
2019-01-29T10:11:57.170Z,1572
2019-01-29T10:12:42.487Z,1796
2019-01-29T10:13:42.493Z,2068
2019-01-29T10:14:57.170Z,2904
2019-01-29T10:15:57.193Z,2836
2019-01-29T10:16:42.539Z,3052
2019-01-29T10:17:42.557Z,3148
2019-01-29T10:18:42.557Z,2812
2019-01-29T10:19:42.592Z,3352
2019-01-29T10:20:42.594Z,3464
2019-01-29T10:21:42.603Z,3048
2019-01-29T10:22:42.637Z,2408
2019-01-29T10:24:43.715Z,2388
2019-01-29T10:25:45.186Z,2288
2019-01-29T10:26:42.668Z,2536
2019-01-29T10:27:57.344Z,2484
2019-01-29T10:29:57.378Z,2924
2019-01-29T10:30:42.724Z,2756
2019-01-29T10:31:42.512Z,2572
2019-01-29T10:32:42.504Z,2312
2019-01-29T10:33:57.432Z,2048
2019-01-29T10:34:42.781Z,1872
2019-01-29T10:35:42.791Z,1960
2019-01-29T10:36:43.467Z,1868
2019-01-29T10:37:42.815Z,1900
2019-01-29T10:38:42.839Z,2496
2019-01-29T10:39:42.863Z,2444
2019-01-29T10:40:57.532Z,2340
2019-01-29T10:41:57.536Z,2148
2019-01-29T10:42:42.887Z,2156
2019-01-29T10:43:42.654Z,2720
2019-01-29T10:44:42.909Z,3332
2019-01-29T10:45:42.996Z,4216
2019-01-29T10:47:42.961Z,3264
2019-01-29T10:48:42.972Z,3444
2019-01-29T10:49:42.980Z,3572
2019-01-29T10:50:42.992Z,3140
2019-01-29T10:51:43.009Z,3240
2019-01-29T10:52:43.019Z,3064
2019-01-29T10:53:43.037Z,2908
2019-01-29T10:54:43.045Z,2684
2019-01-29T10:55:51.511Z,2816
2019-01-29T10:56:43.095Z,3128
2019-01-29T10:57:43.100Z,2884
2019-01-29T10:58:57.773Z,3172
2019-01-29T10:59:43.110Z,2920
2019-01-29T11:00:43.153Z,2428
2019-01-29T11:01:57.804Z,2656
2019-01-29T11:02:43.152Z,3112
2019-01-29T11:03:43.173Z,2828
2019-01-29T11:04:43.185Z,2328
2019-01-29T11:05:43.210Z,2464
2019-01-29T11:06:43.814Z,2212
2019-01-29T11:07:43.228Z,2432
2019-01-29T11:08:43.232Z,2316
2019-01-29T11:09:43.247Z,2480
2019-01-29T11:10:43.262Z,2864
2019-01-29T11:11:43.303Z,3152
2019-01-29T11:12:43.289Z,2692
2019-01-29T11:14:43.326Z,2636
2019-01-29T11:15:57.996Z,2756
2019-01-29T11:16:43.351Z,3056
2019-01-29T11:17:58.018Z,3276
2019-01-29T11:18:43.367Z,3108
2019-01-29T11:19:43.387Z,2964
2019-01-29T11:20:43.396Z,3264
2019-01-29T11:21:43.410Z,3188
2019-01-29T11:22:43.421Z,3480
2019-01-29T11:23:43.443Z,3624
2019-01-29T11:24:45.061Z,3620
2019-01-29T11:25:58.128Z,2912
2019-01-29T11:26:43.477Z,2248
2019-01-29T11:28:58.167Z,3396
2019-01-29T11:29:43.577Z,4076
2019-01-29T11:30:43.545Z,3940
2019-01-29T11:31:43.547Z,3836
2019-01-29T11:32:43.569Z,3552
2019-01-29T11:33:58.324Z,3036
2019-01-29T11:34:43.586Z,2364
2019-01-29T11:35:45.422Z,1976
2019-01-29T11:36:43.664Z,2024
2019-01-29T11:37:43.632Z,2240
2019-01-29T11:38:43.660Z,2244
2019-01-29T11:39:43.656Z,2072
2019-01-29T11:40:43.677Z,2108
2019-01-29T11:41:43.691Z,2480
2019-01-29T11:42:43.706Z,2316
2019-01-29T11:43:43.715Z,1904
2019-01-29T11:44:43.725Z,1864
2019-01-29T11:45:43.505Z,1904
2019-01-29T11:46:43.812Z,1812
2019-01-29T11:47:43.773Z,1528
2019-01-29T11:48:43.781Z,1488
2019-01-29T11:49:58.457Z,1952
2019-01-29T11:50:43.827Z,2808
2019-01-29T11:51:43.825Z,3136
2019-01-29T11:52:43.839Z,2668
2019-01-29T11:53:43.850Z,2524
2019-01-29T11:54:43.870Z,2128
2019-01-29T11:55:43.882Z,2148
2019-01-29T11:56:43.889Z,2384
2019-01-29T11:57:43.912Z,1904
2019-01-29T11:58:58.585Z,1660
2019-01-29T11:59:43.941Z,1492
2019-01-29T12:00:43.951Z,1560
2019-01-29T12:02:43.975Z,2204
2019-01-29T12:03:43.985Z,1960
2019-01-29T12:04:58.671Z,1740
2019-01-29T12:05:44.016Z,1992
2019-01-29T12:06:44.128Z,1992
2019-01-29T12:07:44.051Z,1724
2019-01-29T12:08:44.067Z,1688
2019-01-29T12:09:44.072Z,2020
2019-01-29T12:10:44.083Z,2080
2019-01-29T12:11:44.100Z,2008
2019-01-29T12:12:44.111Z,1960
2019-01-29T12:13:44.193Z,1860
2019-01-29T12:14:44.143Z,1936
2019-01-29T12:15:44.151Z,1744
2019-01-29T12:16:44.173Z,1696
2019-01-29T12:17:44.182Z,1744
2019-01-29T12:18:44.193Z,1596
2019-01-29T12:19:44.210Z,1720
2019-01-29T12:20:44.222Z,1788
2019-01-29T12:21:44.239Z,1892
2019-01-29T12:23:44.266Z,2100
2019-01-29T12:24:44.280Z,2272
2019-01-29T12:25:44.307Z,2396
2019-01-29T12:26:44.310Z,2404
2019-01-29T12:27:44.317Z,2308
2019-01-29T12:28:59.044Z,2264
2019-01-29T12:29:44.350Z,2452
2019-01-29T12:30:44.425Z,2708
2019-01-29T12:31:44.375Z,2792
2019-01-29T12:32:44.394Z,2972
2019-01-29T12:33:44.408Z,3084
2019-01-29T12:34:59.075Z,3368
2019-01-29T12:35:44.436Z,3216
2019-01-29T12:36:59.106Z,3032
2019-01-29T12:37:44.485Z,3136
2019-01-29T12:38:44.494Z,3284
2019-01-29T12:39:44.485Z,3648
2019-01-29T12:40:44.503Z,3756
2019-01-29T12:41:44.519Z,4128
2019-01-29T12:42:44.534Z,4380
2019-01-29T12:43:44.544Z,4664
2019-01-29T12:44:44.552Z,4920
2019-01-29T12:45:44.571Z,4932
2019-01-29T12:46:44.583Z,4956
2019-01-29T12:47:44.610Z,4400
2019-01-29T12:48:44.362Z,4432
2019-01-29T12:49:59.292Z,4768
2019-01-29T12:50:44.646Z,5688
2019-01-29T12:51:44.758Z,5996
2019-01-29T12:52:59.332Z,6156
2019-01-29T12:53:44.685Z,6276
2019-01-29T12:54:44.699Z,6552
2019-01-29T12:55:44.781Z,6112
2019-01-29T12:56:44.728Z,4796
2019-01-29T12:57:44.742Z,5200
2019-01-29T12:58:44.756Z,4924
2019-01-29T12:59:44.766Z,5456
2019-01-29T13:00:44.785Z,5836
2019-01-29T13:01:44.874Z,6432
2019-01-29T13:02:44.811Z,5500
2019-01-29T13:03:44.838Z,5664
2019-01-29T13:04:44.899Z,5236
2019-01-29T13:05:44.873Z,4988
2019-01-29T13:06:44.868Z,4808
2019-01-29T13:07:44.884Z,4952
2019-01-29T13:08:59.558Z,4556
2019-01-29T13:09:44.913Z,4328
2019-01-29T13:10:44.955Z,4560
2019-01-29T13:11:45.042Z,5812
2019-01-29T13:12:44.955Z,5628
2019-01-29T13:13:59.641Z,4592
2019-01-29T13:14:44.984Z,4008
2019-01-29T13:15:45.003Z,3908
2019-01-29T13:16:45.018Z,4420
2019-01-29T13:17:45.029Z,5260
2019-01-29T13:18:59.723Z,4948
2019-01-29T13:19:59.721Z,4932
2019-01-29T13:20:45.080Z,4868
2019-01-29T13:21:59.750Z,4764
2019-01-29T13:22:45.153Z,4884
2019-01-29T13:23:45.118Z,4800
2019-01-29T13:24:59.795Z,3948
2019-01-29T13:25:45.147Z,4124
2019-01-29T13:26:45.182Z,4348
2019-01-29T13:27:45.237Z,3392
2019-01-29T13:28:45.194Z,3072
2019-01-29T13:29:45.208Z,2896
2019-01-29T13:30:45.219Z,2924
2019-01-29T13:31:45.305Z,3156
2019-01-29T13:32:45.251Z,3796
2019-01-29T13:33:59.928Z,3308
2019-01-29T13:34:59.942Z,3240
2019-01-29T13:35:59.976Z,3128
2019-01-29T13:36:45.309Z,3120
2019-01-29T13:37:45.325Z,3704
2019-01-29T13:39:00.045Z,3320
2019-01-29T13:40:02.021Z,3664
2019-01-29T13:40:45.418Z,3736
2019-01-29T13:41:45.408Z,3032
2019-01-29T13:42:45.496Z,2920
2019-01-29T13:43:45.415Z,2840
2019-01-29T13:44:45.429Z,3096
2019-01-29T13:45:47.284Z,3052
2019-01-29T13:46:45.477Z,2984
2019-01-29T13:48:45.487Z,2376
2019-01-29T13:49:45.500Z,2320
2019-01-29T13:50:45.263Z,2340
2019-01-29T13:51:45.527Z,2560
2019-01-29T13:52:45.543Z,2788
2019-01-29T13:53:45.563Z,2892
2019-01-29T13:54:45.574Z,2764
2019-01-29T13:55:45.588Z,2740
2019-01-29T13:56:46.340Z,2744
2019-01-29T13:57:45.619Z,2704
2019-01-29T13:58:45.629Z,2752
2019-01-29T13:59:45.646Z,3356
2019-01-29T14:00:45.663Z,2936
2019-01-29T14:01:45.736Z,2828
2019-01-29T14:02:45.690Z,2692
2019-01-29T14:03:45.700Z,2564
2019-01-29T14:04:45.468Z,2436
2019-01-29T14:05:45.485Z,2320
2019-01-29T14:07:00.408Z,1996
2019-01-29T14:07:45.757Z,1856
2019-01-29T14:09:00.436Z,1752
2019-01-29T14:10:45.821Z,1616
2019-01-29T14:12:00.480Z,1520
2019-01-29T14:13:45.845Z,1520
2019-01-29T14:14:45.675Z,1452
2019-01-29T14:15:45.624Z,1364
2019-01-29T14:16:45.887Z,1364
2019-01-29T14:17:47.178Z,1444
2019-01-29T14:19:00.581Z,1444
2019-01-29T14:19:45.929Z,1376
2019-01-29T14:20:45.960Z,1368
2019-01-29T14:21:45.959Z,1388
2019-01-29T14:23:00.634Z,1432
2019-01-29T14:23:45.987Z,1460
2019-01-29T14:24:46.026Z,1508
2019-01-29T14:25:45.772Z,1484
2019-01-29T14:26:54.742Z,1540
2019-01-29T14:28:00.709Z,1584
2019-01-29T14:29:46.170Z,1620
2019-01-29T14:30:46.123Z,1556
2019-01-29T14:31:46.102Z,1508
2019-01-29T14:32:46.123Z,1516
2019-01-29T14:33:46.176Z,1492
2019-01-29T14:34:46.145Z,1488
2019-01-29T14:35:46.259Z,1520
2019-01-29T14:36:46.268Z,1508
2019-01-29T14:37:47.209Z,1516
2019-01-29T14:38:46.202Z,1532
2019-01-29T14:40:46.232Z,1472
2019-01-29T14:41:46.241Z,1456
2019-01-29T14:42:46.460Z,1444
2019-01-29T14:44:00.933Z,1400
2019-01-29T14:44:46.307Z,1384
2019-01-29T14:45:46.313Z,1364
2019-01-29T14:46:46.314Z,1324
2019-01-29T14:47:46.485Z,1288
2019-01-29T14:48:46.356Z,1276
2019-01-29T14:49:46.374Z,1272
2019-01-29T14:50:46.467Z,1236
2019-01-29T14:51:46.429Z,1200
2019-01-29T14:52:47.085Z,1168
2019-01-29T14:53:46.422Z,1128
2019-01-29T14:54:46.476Z,1092